Airfield :
LOGIN :

Register | Disclaimer

   EN    FR    IT 

 










Legend :    VFR   Marginal VFR   IFR   Intensive IFR   Very Intensive IFR
Visi :
Ceiling :
>= 8 km
>= 3000ft
5 to 8 km
1000 to 3000 ft
1500m to 5 km
500 to 1000 ft
800 to 1500m
200 to 500 ft
< 800m
< 200 ft
Symbols :   Thunderstorms  Fog  Heavy snow  Heavy precipitations  Wind > 20 kt
SIGMETs :     Misc.  Thunderstorms  Icing  Turbulence  Mountain Waves  Volcanic Ashes






- Airport Elevation : 408 ft
- IATA code : SOB


LHSM - Sarmellek Balaton

CURRENT METAR :
  • 162015Z AUTO VRB03KT CAVOK 19/16 Q1013

EXPIRED METARs :
  • 161945Z AUTO VRB02KT 2000 BR NCD 20/15 Q1013
  • 161915Z AUTO VRB02KT CAVOK 21/15 Q1012
  • 161845Z AUTO 04002KT CAVOK 22/16 Q1012
  • 161815Z AUTO 03004KT 010V070 CAVOK 23/15 Q1012
  • 161745Z AUTO 03003KT 350V070 CAVOK 24/14 Q1011
  • 161715Z AUTO VRB03KT CAVOK 24/14 Q1012
  • 161645Z AUTO 35004KT 300V030 CAVOK 24/15 Q1011
  • 161615Z AUTO 36004KT 280V060 CAVOK 25/14 Q1011
  • 161545Z AUTO VRB04KT CAVOK 25/14 Q1011

TAF TAF LHSM
Valid from the 16 at 12:00 until the 16 at 21:00 UTC


161115Z 1612/1621 34009KT CAVOK
BECMG 1612/1615 VRB02KT



MET'MAP, your aeronautical weather chart ! - Copyright ORBIFLY December 2007 - Disclaimer

ORBIFLY MET'MAP TEAM :

Programming & Development : Alexandra Zaïnal
Original concept : Baudouin d'Aumeries
Technical & hardware support : Manuel Goepfert
Assistance : Marc-Olivier Méhu




SOURCES & CREDITS :

   NOAA